Observations for Trim Patrick St
| Time | AQI | Temp °C | Hum % | Pres Pa | CO μg/m³ | H₂S μg/m³ | NO μg/m³ | NO₂ μg/m³ | O₃ μg/m³ | SO₂ μg/m³ | PM1 μg/m³ | PM2.5 μg/m³ | PM10 μg/m³ |
|---|---|---|---|---|---|---|---|---|---|---|---|---|---|
| Saturday 8 August 2026 | |||||||||||||
| 16:02 | 2 | 31.7 | 34 | 69,308 | 0 | 7.74 | 0.75 | 15.55 | 85.33 | 16.85 | 2 | 7.42 | 8.16 |
| 16:01 | 2 | 31.6 | 34 | 69,310 | 0 | 6.89 | 0.76 | 14.58 | 97.12 | 16.38 | 2.86 | 8.21 | 9.03 |
| 16:00 | 2 | 31.6 | 34 | 69,314 | 0 | 7.29 | 0.75 | 15.71 | 97.82 | 16.13 | 2.86 | 8.19 | 9.01 |
| 15:59 | 2 | 31.5 | 34 | 69,316 | 0 | 16.24 | 0.75 | 15.03 | 83.27 | 17.14 | 2 | 7.41 | 8.15 |
| 15:58 | 2 | 31.4 | 35 | 69,294 | 0 | 14.96 | 0.74 | 14.06 | 91.95 | 17.24 | 3.71 | 8.96 | 9.85 |
| 15:57 | 2 | 31.3 | 35 | 69,294 | 0 | 11.35 | 0.78 | 20.73 | 96.29 | 16.29 | 2 | 7.38 | 8.12 |
| 15:56 | 2 | 31.2 | 35 | 69,294 | 0 | 12.62 | 0.74 | 14.54 | 111.26 | 17.31 | 2.86 | 8.14 | 8.96 |
| 15:55 | 2 | 31.1 | 34 | 69,294 | 0 | 9.78 | 0.8 | 13.6 | 83.71 | 16.2 | 2 | 8.2 | 9.02 |
| 15:54 | 2 | 31 | 34 | 69,296 | 0 | 13.17 | 0.83 | 19.5 | 105.57 | 16.37 | 2 | 7.4 | 8.14 |
| 15:52 | 2 | 31 | 34 | 69,300 | 0 | 11.56 | 0.78 | 14.15 | 121.29 | 18.07 | 2.86 | 8.21 | 9.03 |
| 15:51 | 2 | 31 | 34 | 69,271 | 0 | 9.57 | 0.79 | 11.93 | 89.87 | 17.07 | 2 | 8.21 | 9.03 |
| 15:50 | 2 | 31.1 | 34 | 69,267 | 0 | 16.01 | 0.77 | 16.93 | 99.74 | 17.56 | 2 | 7.42 | 8.16 |
| 15:49 | 2 | 31.2 | 34 | 69,264 | 0 | 9.23 | 0.8 | 13.86 | 104.37 | 16.68 | 2 | 8.22 | 9.04 |
| 15:47 | 2 | 31.4 | 34 | 69,292 | 0 | 11.5 | 0.76 | 14.19 | 113.57 | 17.95 | 2 | 7.45 | 8.2 |
| 15:46 | 2 | 31.5 | 33 | 69,264 | 0 | 4.56 | 0.79 | 12.95 | 101.71 | 17.07 | 2.86 | 8.28 | 9.11 |
| 15:45 | 2 | 31.6 | 33 | 69,262 | 0 | 4.12 | 0.8 | 12.1 | 103.42 | 17.9 | 2 | 7.49 | 8.24 |
| 15:44 | 2 | 31.8 | 32 | 69,288 | 0 | 0.69 | 0.8 | 11.71 | 95.27 | 17.56 | 2 | 8.32 | 9.16 |
| 15:43 | 2 | 31.9 | 33 | 69,318 | 0 | 0 | 0.78 | 11.61 | 96.7 | 17.84 | 2 | 8.3 | 9.13 |
| 15:42 | 2 | 32 | 32 | 69,326 | 0 | 0 | 0.76 | 10.77 | 89.56 | 17.94 | 2 | 7.53 | 8.28 |
| 15:41 | 2 | 32.1 | 32 | 69,336 | 0 | 0 | 0.76 | 10.45 | 88.4 | 18.29 | 2 | 8.32 | 9.16 |